Time;durP1;ratioP1;P1;durP2;ratioP2;P2;SDS_P1;SDS_P2;PMS_P1;PMS_P2;Temp;Humidity;BMP_temperature;BMP_pressure;BME280_temperature;BME280_humidity;BME280_pressure;Samples;Min_cycle;Max_cycle;Signal;HPM_P1;HPM_P2
2022/04/24 00:00:19;;;;;;;;;13.67;13.67;;;;;;;;5122617;27;45517;-76
2022/04/24 00:02:44;;;;;;;;;18.67;18.67;;;;;;;;5122879;27;45365;-76
2022/04/24 00:05:10;;;;;;;;;21.67;20.00;;;;;;;;5104239;27;45361;-76
2022/04/24 00:07:35;;;;;;;;;19.67;18.67;;;;;;;;5122446;27;45329;-77
2022/04/24 00:10:00;;;;;;;;;21.33;20.33;;;;;;;;5122504;27;45301;-76
2022/04/24 00:12:26;;;;;;;;;22.00;22.00;;;;;;;;5122413;27;45280;-77
2022/04/24 00:14:51;;;;;;;;;23.33;22.00;;;;;;;;5101327;27;45581;-77
2022/04/24 00:17:16;;;;;;;;;22.67;22.33;;;;;;;;5083704;27;46275;-76
2022/04/24 00:19:42;;;;;;;;;22.33;22.33;;;;;;;;5101733;27;46115;-77
2022/04/24 00:22:07;;;;;;;;;18.00;18.00;;;;;;;;5083240;27;45257;-77
2022/04/24 00:24:32;;;;;;;;;19.67;19.67;;;;;;;;5102052;27;45465;-76
2022/04/24 00:26:58;;;;;;;;;17.33;17.33;;;;;;;;5101475;27;45488;-76
2022/04/24 00:29:23;;;;;;;;;17.00;17.00;;;;;;;;5101542;27;45137;-76
2022/04/24 00:31:48;;;;;;;;;18.67;18.67;;;;;;;;5083193;27;45238;-77
2022/04/24 00:34:14;;;;;;;;;28.00;25.00;;;;;;;;5101354;27;45216;-77
2022/04/24 00:36:39;;;;;;;;;21.67;20.00;;;;;;;;5082847;27;45745;-76
2022/04/24 00:39:05;;;;;;;;;22.00;22.00;;;;;;;;5101461;27;45563;-76
2022/04/24 00:41:30;;;;;;;;;22.67;20.67;;;;;;;;5101300;27;45302;-76
2022/04/24 00:43:55;;;;;;;;;24.00;21.33;;;;;;;;5101507;27;45261;-76
2022/04/24 00:46:39;;;;;;;;;22.67;22.00;;;;;;;;5082965;27;46964;-76
2022/04/24 00:49:05;;;;;;;;;22.75;22.25;;;;;;;;5083078;27;48269;-76
2022/04/24 00:51:30;;;;;;;;;23.33;21.67;;;;;;;;5108964;27;45421;-76
2022/04/24 00:53:56;;;;;;;;;25.75;25.50;;;;;;;;5103365;27;45883;-76
2022/04/24 00:56:22;;;;;;;;;16.00;16.00;;;;;;;;5121474;27;45427;-76
2022/04/24 00:58:48;;;;;;;;;22.33;21.33;;;;;;;;5120879;27;45431;-76
2022/04/24 01:01:13;;;;;;;;;23.67;20.67;;;;;;;;5121681;27;45435;-77
2022/04/24 01:03:39;;;;;;;;;24.25;23.75;;;;;;;;5121886;27;45305;-76
2022/04/24 01:06:05;;;;;;;;;20.00;20.00;;;;;;;;5121578;27;45383;-76
2022/04/24 01:08:30;;;;;;;;;21.67;19.67;;;;;;;;5121540;27;45375;-76
2022/04/24 01:10:55;;;;;;;;;20.75;20.00;;;;;;;;5121406;27;45419;-76
2022/04/24 01:13:20;;;;;;;;;22.00;21.67;;;;;;;;5103167;27;45512;-77
2022/04/24 01:15:45;;;;;;;;;23.33;22.67;;;;;;;;5121578;27;45441;-76
2022/04/24 01:18:11;;;;;;;;;21.75;21.00;;;;;;;;5121354;27;46147;-76
2022/04/24 01:20:36;;;;;;;;;25.00;23.75;;;;;;;;5121634;27;45220;-76
2022/04/24 01:23:01;;;;;;;;;23.00;20.00;;;;;;;;5121465;27;45500;-77
2022/04/24 01:25:27;;;;;;;;;21.00;20.67;;;;;;;;5121486;27;45365;-76
2022/04/24 01:27:52;;;;;;;;;22.75;22.75;;;;;;;;5121121;27;45365;-76
2022/04/24 01:30:17;;;;;;;;;24.00;24.00;;;;;;;;5121387;27;45332;-76
2022/04/24 01:32:42;;;;;;;;;23.75;22.00;;;;;;;;5121555;27;45192;-76
2022/04/24 01:35:08;;;;;;;;;22.75;20.00;;;;;;;;5120913;27;45398;-76
2022/04/24 01:37:33;;;;;;;;;22.00;22.00;;;;;;;;5121166;27;45248;-76
2022/04/24 01:39:59;;;;;;;;;26.67;24.33;;;;;;;;5121188;27;45221;-76
2022/04/24 01:42:24;;;;;;;;;27.00;24.75;;;;;;;;5121305;27;45260;-76
2022/04/24 01:44:49;;;;;;;;;25.75;25.75;;;;;;;;5121064;27;45416;-76
2022/04/24 01:47:15;;;;;;;;;24.75;24.50;;;;;;;;5102352;27;47388;-76
2022/04/24 01:49:40;;;;;;;;;23.25;23.25;;;;;;;;5121038;27;45274;-76
2022/04/24 01:52:05;;;;;;;;;23.50;22.50;;;;;;;;5107924;27;45314;-76
2022/04/24 01:54:31;;;;;;;;;25.75;24.00;;;;;;;;5100166;27;45552;-76
2022/04/24 01:56:56;;;;;;;;;25.75;25.50;;;;;;;;5099934;27;45325;-76
2022/04/24 01:59:21;;;;;;;;;28.25;25.75;;;;;;;;5100352;27;45373;-76
2022/04/24 02:01:46;;;;;;;;;22.50;22.50;;;;;;;;5081909;27;45228;-77
2022/04/24 02:04:11;;;;;;;;;22.00;21.00;;;;;;;;5100154;27;45414;-76
2022/04/24 02:06:37;;;;;;;;;26.00;25.00;;;;;;;;5099881;27;46066;-77
2022/04/24 02:09:02;;;;;;;;;27.75;26.50;;;;;;;;5100130;27;45285;-77
2022/04/24 02:11:28;;;;;;;;;28.00;28.00;;;;;;;;5100104;27;45413;-76
2022/04/24 02:13:53;;;;;;;;;29.75;26.50;;;;;;;;5081644;27;46351;-76
2022/04/24 02:16:18;;;;;;;;;25.75;24.00;;;;;;;;5081245;27;48343;-76
2022/04/24 02:18:44;;;;;;;;;24.25;24.00;;;;;;;;5100038;27;45360;-76
2022/04/24 02:21:10;;;;;;;;;25.25;23.25;;;;;;;;5081640;27;45312;-76
2022/04/24 02:23:35;;;;;;;;;25.25;25.00;;;;;;;;5099873;27;45340;-76
2022/04/24 02:26:00;;;;;;;;;22.25;22.25;;;;;;;;5081037;27;48124;-77
2022/04/24 02:28:26;;;;;;;;;24.75;24.00;;;;;;;;5099824;27;45397;-76
2022/04/24 02:30:51;;;;;;;;;17.75;17.75;;;;;;;;5100025;27;45362;-76
2022/04/24 02:33:16;;;;;;;;;23.50;22.00;;;;;;;;5081360;27;46132;-76
2022/04/24 02:35:41;;;;;;;;;21.75;20.75;;;;;;;;5099663;27;45232;-76
2022/04/24 02:38:07;;;;;;;;;23.75;23.75;;;;;;;;5099557;27;45561;-76
2022/04/24 02:40:32;;;;;;;;;26.25;24.75;;;;;;;;5099973;27;45344;-76
2022/04/24 02:42:57;;;;;;;;;24.00;22.50;;;;;;;;5081140;27;46074;-76
2022/04/24 02:45:22;;;;;;;;;21.50;20.00;;;;;;;;5099602;27;46274;-76
2022/04/24 02:47:48;;;;;;;;;23.75;23.75;;;;;;;;5099746;27;45301;-76
2022/04/24 02:50:14;;;;;;;;;22.75;22.25;;;;;;;;5099803;27;45334;-76
2022/04/24 02:52:46;;;;;;;;;19.00;19.00;;;;;;;;5117077;27;45367;-76
2022/04/24 02:55:11;;;;;;;;;23.00;22.00;;;;;;;;5101457;27;47665;-77
2022/04/24 02:57:37;;;;;;;;;24.75;23.00;;;;;;;;5101337;27;45464;-76
2022/04/24 03:00:03;;;;;;;;;24.00;22.50;;;;;;;;5101679;27;45238;-76
2022/04/24 03:02:28;;;;;;;;;23.00;21.00;;;;;;;;5119853;27;45273;-77
2022/04/24 03:04:53;;;;;;;;;26.25;25.25;;;;;;;;5119948;27;46317;-76
2022/04/24 03:07:18;;;;;;;;;24.00;23.25;;;;;;;;5120020;27;45344;-76
2022/04/24 03:09:44;;;;;;;;;22.00;22.00;;;;;;;;5101535;27;45590;-76
2022/04/24 03:12:09;;;;;;;;;23.25;23.25;;;;;;;;5119880;27;45451;-76
2022/04/24 03:14:34;;;;;;;;;21.75;21.25;;;;;;;;5101081;27;47290;-76
2022/04/24 03:16:59;;;;;;;;;26.75;25.25;;;;;;;;5119867;27;45311;-76
2022/04/24 03:19:25;;;;;;;;;13.50;12.75;;;;;;;;5120049;27;45412;-76
2022/04/24 03:21:50;;;;;;;;;28.25;26.50;;;;;;;;5102758;27;46002;-76
2022/04/24 03:24:15;;;;;;;;;21.00;20.00;;;;;;;;5123285;27;46209;-76
2022/04/24 03:26:41;;;;;;;;;22.00;21.25;;;;;;;;5123073;27;45267;-76
2022/04/24 03:29:06;;;;;;;;;18.33;18.33;;;;;;;;5123320;27;45212;-76
2022/04/24 03:31:31;;;;;;;;;25.50;24.50;;;;;;;;5123188;27;45243;-76
2022/04/24 03:33:57;;;;;;;;;24.75;23.25;;;;;;;;5122728;27;45385;-76
2022/04/24 03:36:22;;;;;;;;;21.25;21.25;;;;;;;;5123033;27;45319;-76
2022/04/24 03:38:47;;;;;;;;;21.75;21.50;;;;;;;;5123035;27;45411;-76
2022/04/24 03:41:12;;;;;;;;;21.50;19.75;;;;;;;;5122767;27;45552;-77
2022/04/24 03:43:38;;;;;;;;;20.75;20.75;;;;;;;;5122984;27;46254;-76
2022/04/24 03:46:05;;;;;;;;;20.75;20.75;;;;;;;;5122917;27;45324;-76
2022/04/24 03:48:30;;;;;;;;;19.25;18.50;;;;;;;;5123119;27;45395;-76
2022/04/24 03:50:55;;;;;;;;;19.75;19.75;;;;;;;;5122725;27;45345;-76
2022/04/24 03:53:21;;;;;;;;;21.50;21.00;;;;;;;;5122703;27;45463;-76
2022/04/24 03:55:46;;;;;;;;;25.00;23.75;;;;;;;;5122760;27;45482;-76
2022/04/24 03:58:11;;;;;;;;;22.75;21.75;;;;;;;;5104166;27;45338;-76
2022/04/24 04:00:36;;;;;;;;;28.00;27.25;;;;;;;;5104242;27;46368;-76
2022/04/24 04:03:02;;;;;;;;;27.50;26.25;;;;;;;;5122588;27;45370;-76
2022/04/24 04:05:27;;;;;;;;;22.75;21.00;;;;;;;;5122767;27;45258;-76
2022/04/24 04:07:52;;;;;;;;;22.75;20.50;;;;;;;;5122723;27;45153;-76
2022/04/24 04:10:17;;;;;;;;;24.00;23.75;;;;;;;;5122563;27;45218;-76
2022/04/24 04:12:43;;;;;;;;;22.25;21.50;;;;;;;;5122312;27;45396;-76
2022/04/24 04:15:08;;;;;;;;;24.00;22.25;;;;;;;;5098786;27;46209;-76
2022/04/24 04:17:33;;;;;;;;;24.00;23.75;;;;;;;;5102065;27;45161;-77
2022/04/24 04:19:59;;;;;;;;;23.00;23.00;;;;;;;;5083242;27;46018;-76
2022/04/24 04:22:24;;;;;;;;;24.25;22.75;;;;;;;;5083292;27;47261;-76
2022/04/24 04:24:50;;;;;;;;;23.75;23.50;;;;;;;;5101887;27;45169;-76
2022/04/24 04:27:15;;;;;;;;;24.50;22.00;;;;;;;;5101614;27;45700;-77
2022/04/24 04:29:41;;;;;;;;;29.00;27.50;;;;;;;;5083150;27;46066;-76
2022/04/24 04:32:06;;;;;;;;;26.25;24.25;;;;;;;;5082555;27;47468;-77
2022/04/24 04:34:31;;;;;;;;;24.50;22.00;;;;;;;;5100611;27;45503;-76
2022/04/24 04:36:56;;;;;;;;;22.75;22.75;;;;;;;;5101712;27;45531;-76
2022/04/24 04:39:22;;;;;;;;;19.75;19.25;;;;;;;;5083063;27;47235;-76
2022/04/24 04:41:47;;;;;;;;;24.00;23.00;;;;;;;;5101415;27;45999;-76
2022/04/24 04:44:12;;;;;;;;;21.25;20.00;;;;;;;;5101380;27;45359;-76
2022/04/24 04:46:38;;;;;;;;;24.75;24.50;;;;;;;;5101660;27;45448;-76
2022/04/24 04:49:03;;;;;;;;;24.25;23.00;;;;;;;;5101367;27;45469;-76
2022/04/24 04:51:28;;;;;;;;;21.25;20.75;;;;;;;;5108792;27;45350;-76
2022/04/24 04:53:55;;;;;;;;;25.25;23.50;;;;;;;;5121880;27;45395;-76
2022/04/24 04:56:20;;;;;;;;;25.75;23.00;;;;;;;;5103194;27;45828;-76
2022/04/24 04:58:46;;;;;;;;;19.50;18.75;;;;;;;;5121600;27;45367;-76
2022/04/24 05:01:11;;;;;;;;;25.75;23.25;;;;;;;;5121723;27;45455;-76
2022/04/24 05:03:37;;;;;;;;;24.25;23.25;;;;;;;;5121679;27;45742;-77
2022/04/24 05:06:02;;;;;;;;;24.00;23.25;;;;;;;;5103274;27;45477;-76
2022/04/24 05:08:27;;;;;;;;;20.50;18.75;;;;;;;;5102994;27;45971;-76
2022/04/24 05:10:52;;;;;;;;;26.25;24.00;;;;;;;;5121424;27;46150;-76
2022/04/24 05:13:18;;;;;;;;;29.00;27.75;;;;;;;;5103073;27;45350;-76
2022/04/24 05:15:43;;;;;;;;;24.25;23.75;;;;;;;;5121528;27;45385;-76
2022/04/24 05:18:08;;;;;;;;;28.00;26.75;;;;;;;;5102917;27;45867;-77
2022/04/24 05:20:34;;;;;;;;;28.50;27.00;;;;;;;;5121425;27;46093;-76
2022/04/24 05:23:06;;;;;;;;;26.75;24.50;;;;;;;;5121297;27;45223;-77
2022/04/24 05:25:31;;;;;;;;;26.75;24.00;;;;;;;;5121411;27;45375;-76
2022/04/24 05:27:57;;;;;;;;;25.00;24.25;;;;;;;;5121035;27;45333;-76
2022/04/24 05:30:23;;;;;;;;;24.50;24.25;;;;;;;;5121207;27;45357;-76
2022/04/24 05:32:50;;;;;;;;;28.50;28.00;;;;;;;;5102900;27;45895;-76
2022/04/24 05:35:15;;;;;;;;;29.00;29.00;;;;;;;;5120738;27;45336;-76
2022/04/24 05:37:41;;;;;;;;;29.75;26.25;;;;;;;;5120803;27;45398;-76
2022/04/24 05:40:06;;;;;;;;;30.75;29.00;;;;;;;;5102522;27;47172;-76
2022/04/24 05:42:32;;;;;;;;;22.00;21.50;;;;;;;;5120927;27;45274;-76
2022/04/24 05:45:00;;;;;;;;;26.00;24.00;;;;;;;;5120633;27;45337;-76
2022/04/24 05:47:26;;;;;;;;;31.00;26.75;;;;;;;;5120960;27;45374;-76
2022/04/24 05:49:51;;;;;;;;;26.75;24.50;;;;;;;;5102167;27;47131;-76
2022/04/24 05:52:16;;;;;;;;;24.25;23.50;;;;;;;;5120653;27;45337;-76
2022/04/24 05:54:41;;;;;;;;;23.25;21.50;;;;;;;;5121257;27;45307;-76
2022/04/24 05:57:07;;;;;;;;;27.25;25.50;;;;;;;;5120731;27;45473;-76
2022/04/24 05:59:32;;;;;;;;;25.50;24.25;;;;;;;;5102177;27;47220;-76
2022/04/24 06:01:57;;;;;;;;;31.25;29.25;;;;;;;;5120634;27;45232;-76
2022/04/24 06:04:22;;;;;;;;;25.00;24.25;;;;;;;;5102330;27;45385;-76
2022/04/24 06:06:47;;;;;;;;;30.75;29.25;;;;;;;;5120624;27;45488;-76
2022/04/24 06:09:13;;;;;;;;;27.25;27.25;;;;;;;;5120853;27;45399;-77
2022/04/24 06:11:41;;;;;;;;;30.50;30.00;;;;;;;;5120644;27;45400;-77
2022/04/24 06:14:06;;;;;;;;;28.00;27.50;;;;;;;;5120817;27;45353;-77
2022/04/24 06:16:31;;;;;;;;;26.75;26.50;;;;;;;;5103320;27;45146;-77
2022/04/24 06:18:56;;;;;;;;;25.25;22.75;;;;;;;;5100019;27;45631;-77
2022/04/24 06:21:22;;;;;;;;;27.50;27.50;;;;;;;;5100206;27;45639;-77
2022/04/24 06:23:47;;;;;;;;;33.50;29.75;;;;;;;;5081538;27;45359;-77
2022/04/24 06:26:12;;;;;;;;;28.50;26.25;;;;;;;;5081318;27;46306;-78
2022/04/24 06:28:37;;;;;;;;;35.50;30.25;;;;;;;;5099937;27;45361;-77
2022/04/24 06:31:02;;;;;;;;;29.75;27.75;;;;;;;;5095504;27;45289;-76
2022/04/24 06:33:28;;;;;;;;;28.50;27.00;;;;;;;;5088004;27;46089;-77
2022/04/24 06:35:53;;;;;;;;;30.25;29.00;;;;;;;;5078594;27;45905;-76
2022/04/24 06:38:18;;;;;;;;;26.67;25.00;;;;;;;;5096221;27;45971;-76
2022/04/24 06:40:45;;;;;;;;;32.00;29.25;;;;;;;;5081277;27;45369;-77
2022/04/24 06:43:10;;;;;;;;;32.50;30.00;;;;;;;;5060793;28;45346;-77
2022/04/24 06:45:43;;;;;;;;;33.00;29.75;;;;;;;;5079211;28;45344;-76
2022/04/24 06:48:09;;;;;;;;;31.00;29.25;;;;;;;;5060829;28;47284;-77
2022/04/24 06:50:36;;;;;;;;;29.50;28.75;;;;;;;;5078997;28;45449;-76
2022/04/24 06:53:02;;;;;;;;;34.75;31.00;;;;;;;;5081734;27;45414;-77
2022/04/24 06:55:28;;;;;;;;;32.75;31.25;;;;;;;;5099715;27;45420;-77
2022/04/24 06:57:53;;;;;;;;;32.75;30.25;;;;;;;;5102605;27;45926;-78
2022/04/24 07:00:19;;;;;;;;;28.25;28.25;;;;;;;;5084773;27;45365;-77
2022/04/24 07:02:45;;;;;;;;;32.50;31.00;;;;;;;;5103289;27;45215;-77
2022/04/24 07:05:10;;;;;;;;;35.50;31.25;;;;;;;;5108131;27;45504;-77
2022/04/24 07:07:35;;;;;;;;;37.25;34.00;;;;;;;;5120414;27;46272;-76
2022/04/24 07:10:00;;;;;;;;;34.25;32.00;;;;;;;;5129284;27;45337;-77
2022/04/24 07:12:26;;;;;;;;;36.50;33.25;;;;;;;;5125736;27;45307;-75
2022/04/24 07:14:51;;;;;;;;;33.25;31.25;;;;;;;;5123091;27;45977;-75
2022/04/24 07:17:18;;;;;;;;;34.50;30.25;;;;;;;;5104727;27;48277;-75
2022/04/24 07:19:43;;;;;;;;;37.00;32.50;;;;;;;;5105081;27;45794;-75
2022/04/24 07:22:08;;;;;;;;;37.00;34.00;;;;;;;;5104691;27;45462;-75
2022/04/24 07:24:33;;;;;;;;;41.50;35.00;;;;;;;;5123215;27;45386;-76
2022/04/24 07:26:58;;;;;;;;;37.75;32.00;;;;;;;;5123345;27;45463;-75
2022/04/24 07:29:24;;;;;;;;;43.50;35.00;;;;;;;;5123620;27;45349;-77
2022/04/24 07:31:49;;;;;;;;;37.25;33.00;;;;;;;;5105103;27;45282;-77
2022/04/24 07:34:14;;;;;;;;;42.50;36.25;;;;;;;;5105346;27;46938;-77
2022/04/24 07:36:39;;;;;;;;;42.00;35.75;;;;;;;;5105078;27;46026;-76
2022/04/24 07:39:04;;;;;;;;;57.00;46.75;;;;;;;;5124641;27;45355;-77
2022/04/24 07:41:30;;;;;;;;;46.75;38.00;;;;;;;;5105542;27;45377;-76
2022/04/24 07:43:55;;;;;;;;;42.00;36.75;;;;;;;;5117420;27;45314;-73
2022/04/24 07:46:20;;;;;;;;;46.50;38.50;;;;;;;;5100647;27;45412;-73
2022/04/24 07:48:45;;;;;;;;;44.00;36.50;;;;;;;;5100644;27;45354;-73
2022/04/24 07:51:11;;;;;;;;;40.75;34.25;;;;;;;;5082186;27;45489;-75
2022/04/24 07:53:41;;;;;;;;;43.00;36.50;;;;;;;;5100711;27;45398;-74
2022/04/24 07:56:06;;;;;;;;;46.00;37.25;;;;;;;;5100144;27;45644;-73
2022/04/24 07:58:32;;;;;;;;;45.25;37.00;;;;;;;;5100668;27;45529;-73
2022/04/24 08:00:57;;;;;;;;;39.00;33.50;;;;;;;;5100753;27;45510;-74
2022/04/24 08:03:22;;;;;;;;;42.50;36.00;;;;;;;;5082002;27;46330;-74
2022/04/24 08:05:49;;;;;;;;;46.25;39.00;;;;;;;;5100532;27;45370;-74
2022/04/24 08:08:15;;;;;;;;;44.25;37.25;;;;;;;;5081974;27;45675;-74
2022/04/24 08:10:42;;;;;;;;;46.25;38.50;;;;;;;;5100473;27;45472;-73
2022/04/24 08:13:08;;;;;;;;;45.00;36.50;;;;;;;;5100489;27;45509;-74
2022/04/24 08:15:34;;;;;;;;;47.00;39.00;;;;;;;;5083204;27;47352;-75
2022/04/24 08:18:00;;;;;;;;;39.25;34.25;;;;;;;;5100400;27;45405;-74
2022/04/24 08:20:25;;;;;;;;;44.00;36.00;;;;;;;;5102032;27;45222;-74
2022/04/24 08:22:53;;;;;;;;;44.50;37.00;;;;;;;;5102060;27;45310;-78
2022/04/24 08:25:25;;;;;;;;;43.00;37.00;;;;;;;;5102138;27;45397;-76
2022/04/24 08:27:51;;;;;;;;;42.00;36.50;;;;;;;;5102563;27;45293;-77
2022/04/24 08:30:17;;;;;;;;;46.00;36.75;;;;;;;;5102373;27;45343;-76
2022/04/24 08:32:43;;;;;;;;;43.00;37.00;;;;;;;;5101651;27;45470;-78
2022/04/24 08:35:10;;;;;;;;;46.00;37.00;;;;;;;;5102836;27;46544;-79
2022/04/24 08:37:35;;;;;;;;;46.75;38.00;;;;;;;;5101799;27;45370;-78
2022/04/24 08:40:00;;;;;;;;;44.50;37.25;;;;;;;;5101936;27;45292;-77
2022/04/24 08:42:26;;;;;;;;;41.00;36.25;;;;;;;;5102121;27;45412;-77
2022/04/24 08:44:55;;;;;;;;;45.75;37.75;;;;;;;;5112292;27;46311;-77
2022/04/24 08:47:21;;;;;;;;;44.25;35.75;;;;;;;;5123019;27;45219;-76
2022/04/24 08:49:46;;;;;;;;;43.00;36.00;;;;;;;;5123343;27;45239;-76
2022/04/24 08:52:13;;;;;;;;;40.75;35.50;;;;;;;;5121844;27;45464;-77
2022/04/24 08:54:40;;;;;;;;;44.00;36.50;;;;;;;;5122614;27;46107;-76
2022/04/24 08:57:05;;;;;;;;;43.75;35.75;;;;;;;;5103440;27;45376;-76
2022/04/24 08:59:31;;;;;;;;;43.00;36.00;;;;;;;;5122043;27;45371;-76
2022/04/24 09:01:59;;;;;;;;;42.50;34.50;;;;;;;;5117837;27;45317;-76
2022/04/24 09:04:25;;;;;;;;;40.75;34.75;;;;;;;;5139057;27;46375;-77
2022/04/24 09:06:55;;;;;;;;;43.25;35.75;;;;;;;;5143263;27;45310;-77
2022/04/24 09:09:20;;;;;;;;;43.25;35.75;;;;;;;;5142789;27;45417;-77
2022/04/24 09:11:45;;;;;;;;;44.75;37.25;;;;;;;;5142192;27;45447;-77
2022/04/24 09:14:20;;;;;;;;;42.25;36.75;;;;;;;;5142304;27;45306;-76
2022/04/24 09:16:49;;;;;;;;;41.50;36.25;;;;;;;;5123217;27;45537;-76
2022/04/24 09:19:25;;;;;;;;;43.50;37.75;;;;;;;;5108326;27;45441;-77
2022/04/24 09:21:51;;;;;;;;;43.25;35.00;;;;;;;;5115430;27;45263;-77
2022/04/24 09:24:16;;;;;;;;;49.00;40.00;;;;;;;;5104437;27;45313;-77
2022/04/24 09:26:55;;;;;;;;;32.50;31.25;;;;;;;;5089403;27;45516;-77
2022/04/24 09:29:24;;;;;;;;;43.50;36.25;;;;;;;;5104116;27;45460;-77
2022/04/24 09:31:50;;;;;;;;;46.00;39.00;;;;;;;;5081878;27;45486;-76
2022/04/24 09:34:17;;;;;;;;;45.50;39.00;;;;;;;;5085642;27;48365;-77
2022/04/24 09:36:42;;;;;;;;;45.25;35.75;;;;;;;;5115656;27;45274;-77
2022/04/24 09:39:07;;;;;;;;;44.50;37.25;;;;;;;;5081676;27;45260;-77
2022/04/24 09:41:33;;;;;;;;;45.75;37.25;;;;;;;;5099941;27;45306;-77
2022/04/24 09:44:10;;;;;;;;;43.00;36.50;;;;;;;;5100045;27;45978;-77
2022/04/24 09:46:35;;;;;;;;;42.00;36.00;;;;;;;;5108244;27;45339;-77
2022/04/24 09:49:01;;;;;;;;;35.50;32.00;;;;;;;;5102552;27;45369;-78
2022/04/24 09:51:26;;;;;;;;;38.50;34.00;;;;;;;;5121211;27;45369;-77
2022/04/24 09:53:53;;;;;;;;;34.25;32.00;;;;;;;;5109800;27;46011;-79
2022/04/24 09:56:19;;;;;;;;;44.00;35.75;;;;;;;;5087002;27;45398;-78
2022/04/24 09:58:45;;;;;;;;;36.75;33.25;;;;;;;;5118992;27;45523;-78
2022/04/24 10:01:12;;;;;;;;;43.25;36.75;;;;;;;;5142012;27;45300;-78
2022/04/24 10:03:38;;;;;;;;;41.75;34.75;;;;;;;;5080216;27;47648;-78
2022/04/24 10:06:04;;;;;;;;;44.00;37.50;;;;;;;;5097902;27;45346;-77
2022/04/24 10:08:32;;;;;;;;;39.25;34.50;;;;;;;;5099578;27;45462;-78
2022/04/24 10:11:00;;;;;;;;;39.50;34.25;;;;;;;;5102250;27;45307;-78
2022/04/24 10:13:26;;;;;;;;;43.50;37.50;;;;;;;;5100843;27;45348;-77
2022/04/24 10:16:00;;;;;;;;;41.50;34.25;;;;;;;;5111026;27;45326;-79
2022/04/24 10:18:44;;;;;;;;;43.00;35.50;;;;;;;;5121126;27;45281;-77
2022/04/24 10:21:17;;;;;;;;;44.25;36.00;;;;;;;;5120805;27;45974;-78
2022/04/24 10:23:42;;;;;;;;;40.50;35.50;;;;;;;;5120425;27;46153;-79
2022/04/24 10:26:18;;;;;;;;;41.25;34.00;;;;;;;;5101757;27;45892;-78
2022/04/24 10:28:46;;;;;;;;;40.50;34.00;;;;;;;;5120769;27;45340;-76
2022/04/24 10:31:12;;;;;;;;;37.50;32.75;;;;;;;;5121128;27;45320;-77
2022/04/24 10:33:38;;;;;;;;;42.75;37.00;;;;;;;;5105323;27;47242;-78
2022/04/24 10:36:11;;;;;;;;;34.75;31.50;;;;;;;;5124130;27;45398;-78
2022/04/24 10:38:50;;;;;;;;;40.50;34.25;;;;;;;;5124015;27;45276;-78
2022/04/24 10:41:16;;;;;;;;;39.75;33.25;;;;;;;;5100821;27;46389;-79
2022/04/24 10:43:46;;;;;;;;;40.00;35.50;;;;;;;;5120507;27;45449;-77
2022/04/24 10:46:34;;;;;;;;;40.00;35.25;;;;;;;;5120901;27;45314;-79
2022/04/24 10:49:10;;;;;;;;;35.75;32.75;;;;;;;;5130739;27;45363;-76
2022/04/24 10:51:36;;;;;;;;;35.25;32.00;;;;;;;;5118666;27;45550;-77
2022/04/24 10:54:02;;;;;;;;;43.00;35.33;;;;;;;;5103163;27;46478;-79
2022/04/24 10:56:29;;;;;;;;;39.00;33.75;;;;;;;;5104578;27;45287;-79
2022/04/24 10:59:04;;;;;;;;;39.00;32.25;;;;;;;;5086284;27;45241;-77
2022/04/24 11:01:33;;;;;;;;;35.75;32.25;;;;;;;;5112503;27;45310;-79
2022/04/24 11:04:03;;;;;;;;;35.67;31.67;;;;;;;;5105542;27;45287;-77
2022/04/24 11:06:29;;;;;;;;;39.25;33.50;;;;;;;;5103476;27;45325;-77
2022/04/24 11:08:54;;;;;;;;;37.50;33.00;;;;;;;;5114188;27;45528;-78
2022/04/24 11:11:19;;;;;;;;;37.67;33.00;;;;;;;;5119399;27;45710;-77
2022/04/24 11:13:45;;;;;;;;;35.33;30.67;;;;;;;;5113863;27;46570;-77
2022/04/24 11:16:13;;;;;;;;;37.50;32.00;;;;;;;;5095203;27;46278;-77
2022/04/24 11:18:44;;;;;;;;;37.00;32.67;;;;;;;;5084621;27;45449;-77
2022/04/24 11:21:09;;;;;;;;;31.00;28.33;;;;;;;;5102511;27;45552;-78
2022/04/24 11:23:36;;;;;;;;;30.67;29.33;;;;;;;;5101996;27;46041;-78
2022/04/24 11:26:02;;;;;;;;;36.25;30.25;;;;;;;;5083891;27;45332;-78
2022/04/24 11:28:34;;;;;;;;;31.33;28.67;;;;;;;;5122966;27;45338;-77
2022/04/24 11:31:06;;;;;;;;;34.33;29.00;;;;;;;;5111069;27;45567;-76
2022/04/24 11:33:31;;;;;;;;;29.33;28.00;;;;;;;;5101396;27;45396;-77
2022/04/24 11:36:01;;;;;;;;;31.33;29.00;;;;;;;;5102902;27;45409;-76
2022/04/24 11:38:29;;;;;;;;;31.67;29.00;;;;;;;;5102817;27;45334;-75
2022/04/24 11:40:54;;;;;;;;;31.67;28.67;;;;;;;;5106678;27;45589;-76
2022/04/24 11:43:19;;;;;;;;;35.67;30.33;;;;;;;;5101458;27;45386;-76
2022/04/24 11:51:17;;;;;;;;;33.33;30.33;;;;;;;;5106706;27;45345;-78
2022/04/24 11:53:43;;;;;;;;;29.67;29.00;;;;;;;;5125136;27;46010;-80
2022/04/24 11:56:10;;;;;;;;;28.33;28.33;;;;;;;;5102421;27;45165;-78
2022/04/24 11:58:37;;;;;;;;;27.67;25.67;;;;;;;;5143344;27;45345;-76
2022/04/24 12:01:04;;;;;;;;;29.67;28.33;;;;;;;;5118740;27;45562;-76
2022/04/24 12:03:30;;;;;;;;;28.00;26.00;;;;;;;;5114447;27;45531;-79
2022/04/24 12:05:57;;;;;;;;;30.00;28.33;;;;;;;;5122383;27;45403;-78
2022/04/24 12:08:22;;;;;;;;;26.33;26.00;;;;;;;;5135981;27;45263;-80
2022/04/24 12:10:48;;;;;;;;;30.00;29.00;;;;;;;;5136277;27;45567;-80
2022/04/24 12:13:15;;;;;;;;;26.67;24.33;;;;;;;;5112892;27;45441;-80
2022/04/24 12:15:50;;;;;;;;;26.67;26.33;;;;;;;;5113745;27;45419;-77
2022/04/24 12:18:19;;;;;;;;;29.67;28.67;;;;;;;;5122689;27;45409;-76
2022/04/24 12:20:45;;;;;;;;;27.00;25.33;;;;;;;;5121370;27;45373;-76
2022/04/24 12:23:11;;;;;;;;;25.00;24.67;;;;;;;;5125852;27;45356;-77
2022/04/24 12:25:52;;;;;;;;;24.67;24.33;;;;;;;;5104899;27;45291;-75
2022/04/24 12:28:32;;;;;;;;;26.33;26.33;;;;;;;;5123143;27;45547;-77
2022/04/24 12:31:01;;;;;;;;;25.00;25.00;;;;;;;;5123625;27;45510;-77
2022/04/24 12:33:26;;;;;;;;;27.67;26.33;;;;;;;;5101830;27;48269;-77
2022/04/24 12:35:52;;;;;;;;;27.67;26.67;;;;;;;;5102034;27;45404;-77
2022/04/24 12:38:18;;;;;;;;;28.00;27.00;;;;;;;;5120217;27;45270;-77
2022/04/24 12:40:57;;;;;;;;;27.67;27.67;;;;;;;;5120102;27;45556;-76
2022/04/24 12:43:26;;;;;;;;;26.33;26.33;;;;;;;;5090394;27;47605;-77
2022/04/24 12:45:52;;;;;;;;;24.67;24.33;;;;;;;;5104165;27;45402;-75
2022/04/24 12:48:17;;;;;;;;;26.00;24.67;;;;;;;;5113110;27;45490;-76
2022/04/24 12:50:42;;;;;;;;;29.67;28.00;;;;;;;;5100432;27;45495;-75
2022/04/24 12:53:08;;;;;;;;;18.33;17.67;;;;;;;;5099973;27;45460;-76
2022/04/24 12:55:33;;;;;;;;;28.33;27.00;;;;;;;;5113156;27;45463;-76
2022/04/24 12:57:58;;;;;;;;;26.00;25.67;;;;;;;;5121179;27;45379;-75
2022/04/24 13:00:23;;;;;;;;;22.33;22.33;;;;;;;;5117307;27;45436;-78
2022/04/24 13:02:49;;;;;;;;;27.00;23.33;;;;;;;;5081592;27;48318;-77
2022/04/24 13:05:14;;;;;;;;;24.00;23.00;;;;;;;;5100090;27;45420;-76
2022/04/24 13:07:39;;;;;;;;;31.33;29.33;;;;;;;;5100584;27;45450;-76
2022/04/24 13:10:05;;;;;;;;;23.67;23.67;;;;;;;;5081828;27;47208;-77
2022/04/24 13:12:30;;;;;;;;;24.67;23.33;;;;;;;;5081328;27;48216;-76
2022/04/24 13:14:55;;;;;;;;;28.33;26.33;;;;;;;;5103509;27;45373;-75
2022/04/24 13:20:05;;;;;;;;;24.33;23.33;;;;;;;;5097355;27;45734;-76
2022/04/24 13:22:30;;;;;;;;;27.00;26.00;;;;;;;;5098408;27;45964;-77
2022/04/24 13:24:55;;;;;;;;;24.00;23.00;;;;;;;;5099605;27;45673;-75
2022/04/24 13:27:21;;;;;;;;;27.33;26.67;;;;;;;;5082509;27;45758;-75
2022/04/24 13:29:46;;;;;;;;;151.50;150.50;;;;;;;;5109900;27;45560;-75
2022/04/24 13:32:11;;;;;;;;;30.33;27.00;;;;;;;;5119636;27;46489;-78
2022/04/24 13:34:38;;;;;;;;;27.33;27.33;;;;;;;;5118133;27;45227;-76
2022/04/24 13:39:47;;;;;;;;;24.00;22.00;;;;;;;;5119145;27;45445;-75
2022/04/24 13:42:14;;;;;;;;;23.33;22.67;;;;;;;;5119182;27;46518;-77
2022/04/24 13:44:40;;;;;;;;;25.33;24.67;;;;;;;;5103926;27;45262;-75
2022/04/24 13:47:06;;;;;;;;;21.33;21.33;;;;;;;;5098853;27;45471;-75
2022/04/24 13:49:33;;;;;;;;;27.67;26.33;;;;;;;;5119957;27;45293;-76
2022/04/24 13:51:58;;;;;;;;;27.33;25.33;;;;;;;;5119363;27;46090;-76
2022/04/24 13:54:23;;;;;;;;;46.25;39.25;;;;;;;;5111053;27;45386;-74
2022/04/24 13:56:49;;;;;;;;;27.00;25.00;;;;;;;;5099267;27;45428;-75
2022/04/24 13:59:16;;;;;;;;;26.33;24.33;;;;;;;;5089760;27;47343;-76
2022/04/24 14:01:42;;;;;;;;;21.00;20.33;;;;;;;;5124523;27;46141;-76
2022/04/24 14:04:07;;;;;;;;;24.67;23.00;;;;;;;;5087480;27;45782;-75
2022/04/24 14:06:32;;;;;;;;;27.00;26.00;;;;;;;;5099576;27;45497;-76
2022/04/24 14:08:59;;;;;;;;;21.00;20.33;;;;;;;;5102356;27;45289;-75
2022/04/24 14:11:24;;;;;;;;;26.00;23.67;;;;;;;;5140428;27;45667;-76
2022/04/24 14:13:50;;;;;;;;;27.33;25.00;;;;;;;;5136030;27;46599;-76
2022/04/24 14:16:15;;;;;;;;;24.00;23.33;;;;;;;;5123946;27;45286;-77
2022/04/24 14:18:41;;;;;;;;;26.33;25.33;;;;;;;;5101768;27;45537;-77
2022/04/24 14:21:06;;;;;;;;;22.67;22.33;;;;;;;;5102010;27;45238;-76